Time;durP1;ratioP1;P1;durP2;ratioP2;P2;SDS_P1;SDS_P2;PMS_P1;PMS_P2;Temp;Humidity;BMP_temperature;BMP_pressure;BME280_temperature;BME280_humidity;BME280_pressure;Samples;Min_cycle;Max_cycle;Signal;HPM_P1;HPM_P2
2023/06/30 00:00:12;;;;;;;16.60;7.87;;;;;;;20.23;72.93;100138.16;5079847;28;20020;-71
2023/06/30 00:02:42;;;;;;;15.73;7.80;;;;;;;20.21;73.35;100135.53;5080227;28;20491;-71
2023/06/30 00:05:08;;;;;;;17.92;8.45;;;;;;;20.20;73.39;100138.28;5079926;28;20028;-71
2023/06/30 00:07:34;;;;;;;16.67;7.32;;;;;;;20.15;73.55;100132.31;5079899;28;20036;-71
2023/06/30 00:09:59;;;;;;;16.07;7.80;;;;;;;20.15;73.18;100121.59;5090844;28;20032;-71
2023/06/30 00:12:24;;;;;;;17.90;8.50;;;;;;;20.17;73.13;100127.75;5085679;28;20084;-71
2023/06/30 00:14:50;;;;;;;20.05;8.65;;;;;;;20.18;73.28;100129.47;5079785;28;20035;-71
2023/06/30 00:17:16;;;;;;;21.70;8.90;;;;;;;20.15;73.52;100125.13;5061525;28;20381;-71
2023/06/30 00:19:41;;;;;;;19.13;8.37;;;;;;;20.14;73.60;100126.06;5080025;28;20472;-71
2023/06/30 00:22:07;;;;;;;22.85;8.68;;;;;;;20.13;73.47;100128.81;5061702;28;20021;-71
2023/06/30 00:24:33;;;;;;;19.40;9.70;;;;;;;20.10;73.58;100121.81;5079697;28;20020;-71
2023/06/30 00:26:58;;;;;;;17.23;9.18;;;;;;;20.10;73.65;100131.63;5061664;28;20031;-71
2023/06/30 00:29:24;;;;;;;16.60;9.27;;;;;;;20.04;73.38;100133.63;5079613;28;20029;-71
2023/06/30 00:31:49;;;;;;;17.30;9.20;;;;;;;20.01;73.51;100139.13;5079348;28;20070;-71
2023/06/30 00:34:14;;;;;;;23.38;9.93;;;;;;;19.99;73.60;100130.31;5079325;28;20047;-71
2023/06/30 00:36:40;;;;;;;18.43;9.03;;;;;;;20.00;73.40;100131.16;5061487;28;20024;-71
2023/06/30 00:39:05;;;;;;;19.53;8.97;;;;;;;20.01;73.69;100131.13;5079439;28;20429;-71
2023/06/30 00:41:31;;;;;;;21.30;9.10;;;;;;;20.00;73.59;100131.16;5079365;28;20477;-71
2023/06/30 00:43:56;;;;;;;22.10;9.27;;;;;;;20.01;73.81;100125.78;5079253;28;20481;-71
2023/06/30 00:46:22;;;;;;;18.92;8.90;;;;;;;20.02;73.67;100132.00;5079314;28;20027;-71
2023/06/30 00:48:48;;;;;;;19.20;9.00;;;;;;;20.01;73.91;100130.22;5079186;28;20055;-71
2023/06/30 00:51:14;;;;;;;18.90;8.70;;;;;;;20.02;73.68;100130.19;5061170;28;20480;-71
2023/06/30 00:53:40;;;;;;;19.13;9.65;;;;;;;20.01;73.96;100132.91;5079267;28;20492;-71
2023/06/30 00:56:05;;;;;;;19.97;9.67;;;;;;;20.00;73.60;100132.06;5079159;28;20334;-71
2023/06/30 00:58:31;;;;;;;18.77;8.93;;;;;;;19.99;73.75;100133.00;5079070;28;20153;-71
2023/06/30 01:01:07;;;;;;;19.88;8.52;;;;;;;19.98;73.68;100128.59;5079071;28;20013;-71
2023/06/30 01:03:41;;;;;;;17.52;8.45;;;;;;;20.01;73.76;100130.22;5078865;28;20031;-71
2023/06/30 01:06:18;;;;;;;18.42;9.20;;;;;;;20.00;73.54;100129.38;5078710;28;20047;-71
2023/06/30 01:09:01;;;;;;;19.00;9.50;;;;;;;20.01;73.84;100132.91;5083140;28;20171;-71
2023/06/30 01:11:28;;;;;;;23.70;9.40;;;;;;;20.00;73.55;100132.06;5070597;28;20025;-71
2023/06/30 01:13:55;;;;;;;22.25;8.52;;;;;;;20.02;73.69;100129.31;5078672;28;20028;-71
2023/06/30 01:16:23;;;;;;;15.82;8.38;;;;;;;20.04;73.78;100128.28;5060861;28;20082;-71
2023/06/30 01:18:52;;;;;;;19.58;9.48;;;;;;;20.04;73.44;100127.44;5078491;28;20481;-71
2023/06/30 01:21:21;;;;;;;19.00;9.15;;;;;;;20.03;73.57;100128.38;5078549;28;20107;-71
2023/06/30 01:23:54;;;;;;;18.20;8.87;;;;;;;19.97;73.66;100124.19;5078591;28;20016;-71
2023/06/30 01:26:21;;;;;;;16.77;9.25;;;;;;;19.96;73.93;100124.22;5078523;28;20040;-71
2023/06/30 01:28:48;;;;;;;18.17;9.02;;;;;;;19.96;73.84;100127.78;5078620;28;20036;-71
2023/06/30 01:31:13;;;;;;;19.58;9.25;;;;;;;19.94;73.71;100127.00;5060348;28;20024;-71
2023/06/30 01:33:39;;;;;;;19.57;9.23;;;;;;;19.94;73.75;100121.66;5078154;28;20032;-71
2023/06/30 01:36:06;;;;;;;23.00;10.75;;;;;;;19.95;73.96;100131.41;5078327;28;20612;-71
2023/06/30 01:38:31;;;;;;;19.13;9.83;;;;;;;19.92;74.08;100129.72;5060418;28;20554;-71
2023/06/30 01:40:58;;;;;;;18.55;9.50;;;;;;;19.92;74.09;100134.22;5078187;28;20063;-71
2023/06/30 01:43:25;;;;;;;20.23;10.07;;;;;;;19.95;73.73;100123.38;5078343;28;20060;-71
2023/06/30 01:45:50;;;;;;;21.50;10.70;;;;;;;19.93;74.16;100133.28;5078165;28;20099;-71
2023/06/30 01:48:17;;;;;;;20.38;9.52;;;;;;;19.92;74.11;100128.88;5060119;28;20084;-71
2023/06/30 01:50:44;;;;;;;22.08;10.02;;;;;;;19.93;73.69;100123.44;5077932;28;20025;-71
2023/06/30 01:53:09;;;;;;;21.48;9.88;;;;;;;19.92;73.85;100128.88;5078031;28;20103;-71
2023/06/30 01:55:35;;;;;;;22.20;9.17;;;;;;;19.89;74.00;100126.28;5077990;28;20055;-71
2023/06/30 01:58:00;;;;;;;23.30;10.20;;;;;;;19.90;74.23;100128.03;5077746;28;20104;-71
2023/06/30 02:00:26;;;;;;;20.10;10.53;;;;;;;19.87;74.05;100125.47;5077804;28;20021;-71
2023/06/30 02:02:51;;;;;;;18.80;10.55;;;;;;;19.84;74.32;100131.84;5077803;28;20024;-71
2023/06/30 02:05:17;;;;;;;20.97;10.40;;;;;;;19.83;74.31;100140.81;5077639;28;20575;-71
2023/06/30 02:07:42;;;;;;;19.87;10.67;;;;;;;19.81;74.37;100137.34;5060007;28;20107;-71
2023/06/30 02:10:08;;;;;;;20.20;10.48;;;;;;;19.78;74.36;100137.47;5089721;28;20024;-71
2023/06/30 02:12:34;;;;;;;24.27;11.20;;;;;;;19.70;74.41;100135.13;5082505;28;20497;-71
2023/06/30 02:14:59;;;;;;;19.85;10.50;;;;;;;19.67;74.77;100134.41;5077341;28;21239;-71
2023/06/30 02:17:31;;;;;;;20.87;11.20;;;;;;;19.64;74.88;100138.06;5077379;28;20029;-71
2023/06/30 02:19:57;;;;;;;22.45;11.80;;;;;;;19.65;74.88;100142.47;5059196;28;20047;-71
2023/06/30 02:22:22;;;;;;;24.03;13.00;;;;;;;19.61;74.83;100146.22;5077535;28;20107;-71
2023/06/30 02:24:47;;;;;;;24.42;13.10;;;;;;;19.57;75.40;100141.94;5077539;28;20056;-71
2023/06/30 02:27:13;;;;;;;25.00;12.87;;;;;;;19.51;75.01;100137.72;5059284;28;20029;-71
2023/06/30 02:29:38;;;;;;;26.87;12.17;;;;;;;19.48;74.90;100144.09;5077346;28;20476;-71
2023/06/30 02:32:04;;;;;;;23.63;12.27;;;;;;;19.45;75.18;100152.25;5077188;28;20024;-71
2023/06/30 02:34:29;;;;;;;27.33;14.52;;;;;;;19.42;75.14;100152.38;5077208;28;20080;-70
2023/06/30 02:36:55;;;;;;;25.27;12.30;;;;;;;19.40;74.55;100148.88;5076797;28;20089;-70
2023/06/30 02:39:20;;;;;;;24.10;12.33;;;;;;;19.35;74.69;100151.75;5077163;28;20029;-70
2023/06/30 02:41:45;;;;;;;21.63;10.60;;;;;;;19.35;74.61;100148.22;5092703;28;20032;-70
2023/06/30 02:44:12;;;;;;;22.50;10.30;;;;;;;19.30;73.73;100147.53;5076904;28;20086;-70
2023/06/30 02:46:37;;;;;;;18.40;8.50;;;;;;;19.19;73.16;100146.22;5076967;28;20038;-71
2023/06/30 02:49:02;;;;;;;18.10;8.65;;;;;;;19.08;73.32;100143.97;5076866;28;20076;-70
2023/06/30 02:51:28;;;;;;;17.47;7.80;;;;;;;18.99;72.88;100146.16;5076824;28;20068;-70
2023/06/30 02:53:53;;;;;;;19.67;7.83;;;;;;;18.91;72.73;100151.78;5077101;28;20531;-70
2023/06/30 02:56:18;;;;;;;18.10;7.17;;;;;;;18.85;72.45;100150.22;5076880;28;20192;-70
2023/06/30 02:58:44;;;;;;;16.07;6.50;;;;;;;18.82;73.19;100150.34;5076720;28;20511;-70
2023/06/30 03:01:09;;;;;;;17.43;8.23;;;;;;;18.77;73.09;100155.00;5076756;28;20055;-70
2023/06/30 03:03:35;;;;;;;15.53;7.17;;;;;;;18.76;73.03;100148.78;5076702;28;20275;-70
2023/06/30 03:06:00;;;;;;;18.37;6.63;;;;;;;18.75;72.97;100149.72;5059094;28;20120;-70
2023/06/30 03:08:26;;;;;;;14.93;6.90;;;;;;;18.75;72.80;100151.53;5079096;28;20267;-70
2023/06/30 03:10:51;;;;;;;19.00;7.33;;;;;;;18.72;73.16;100154.31;5091609;28;20042;-71
2023/06/30 03:13:17;;;;;;;17.77;7.77;;;;;;;18.67;73.34;100154.50;5058819;28;20476;-70
2023/06/30 03:15:43;;;;;;;20.60;8.25;;;;;;;18.68;73.17;100156.22;5058181;28;20024;-71
2023/06/30 03:18:08;;;;;;;16.43;7.23;;;;;;;18.68;73.29;100155.34;5058453;28;20032;-70
2023/06/30 03:20:33;;;;;;;16.43;6.90;;;;;;;18.70;73.22;100156.19;5076876;28;20028;-70
2023/06/30 03:23:00;;;;;;;20.13;8.18;;;;;;;18.68;73.22;100155.34;5076947;28;20164;-70
2023/06/30 03:25:25;;;;;;;17.60;7.40;;;;;;;18.63;73.26;100159.06;5076406;28;20058;-71
2023/06/30 03:27:50;;;;;;;19.25;8.18;;;;;;;18.59;73.19;100157.47;5076639;28;20039;-71
2023/06/30 03:30:16;;;;;;;16.60;6.97;;;;;;;18.53;73.45;100162.16;5077319;28;20042;-70
2023/06/30 03:32:41;;;;;;;19.07;7.83;;;;;;;18.53;73.44;100163.03;5080472;28;20421;-71
2023/06/30 03:35:07;;;;;;;20.52;8.30;;;;;;;18.48;73.63;100165.03;5080548;28;20024;-71
2023/06/30 03:37:33;;;;;;;15.13;7.07;;;;;;;18.44;73.60;100168.72;5063152;28;20074;-71
2023/06/30 03:40:05;;;;;;;20.20;8.05;;;;;;;18.43;73.65;100164.31;5062416;28;20404;-70
2023/06/30 03:42:30;;;;;;;16.03;6.50;;;;;;;18.40;73.72;100167.09;5080724;28;20058;-71
2023/06/30 03:44:56;;;;;;;14.40;6.45;;;;;;;18.41;73.58;100168.84;5080395;28;20446;-70
2023/06/30 03:47:21;;;;;;;18.17;6.37;;;;;;;18.39;73.58;100166.25;5080159;28;20115;-71
2023/06/30 03:49:46;;;;;;;17.57;6.70;;;;;;;18.39;73.56;100171.56;5080348;28;20064;-70
2023/06/30 03:52:12;;;;;;;17.37;5.97;;;;;;;18.37;73.43;100173.44;5080242;28;20074;-70
2023/06/30 03:54:37;;;;;;;16.07;6.07;;;;;;;18.38;73.45;100179.63;5080274;28;20095;-70
2023/06/30 03:57:03;;;;;;;14.65;5.38;;;;;;;18.39;73.33;100176.03;5080108;28;20113;-70
2023/06/30 03:59:28;;;;;;;17.43;5.33;;;;;;;18.39;73.29;100176.03;5080102;28;20032;-70
2023/06/30 04:01:53;;;;;;;14.17;5.20;;;;;;;18.34;73.37;100179.75;5062382;28;20111;-70
2023/06/30 04:04:19;;;;;;;13.95;5.78;;;;;;;18.34;73.62;100190.41;5079992;28;20033;-71
2023/06/30 04:06:44;;;;;;;15.03;5.30;;;;;;;18.33;73.48;100193.16;5080308;28;20032;-70
2023/06/30 04:09:10;;;;;;;14.93;4.97;;;;;;;18.28;73.51;100195.97;5088033;28;20495;-70
2023/06/30 04:11:35;;;;;;;11.53;4.93;;;;;;;18.26;73.36;100197.81;5089607;28;20028;-70
2023/06/30 04:14:01;;;;;;;17.23;5.23;;;;;;;18.22;73.26;100190.88;5080055;28;20473;-70
2023/06/30 04:16:26;;;;;;;15.90;4.93;;;;;;;18.20;73.62;100190.03;5079810;28;20305;-70
2023/06/30 04:18:53;;;;;;;11.83;4.83;;;;;;;18.23;73.40;100200.63;5079606;28;20437;-70
2023/06/30 04:21:19;;;;;;;13.85;5.32;;;;;;;18.23;73.47;100203.28;5079979;28;20540;-70
2023/06/30 04:23:44;;;;;;;13.15;4.47;;;;;;;18.24;73.42;100201.47;5079764;28;20048;-70
2023/06/30 04:26:09;;;;;;;15.53;4.37;;;;;;;18.20;73.38;100203.38;5079967;28;20063;-70
2023/06/30 04:28:35;;;;;;;15.43;4.47;;;;;;;18.21;73.27;100207.78;5061924;28;20086;-70
2023/06/30 04:31:03;;;;;;;17.97;4.10;;;;;;;18.17;73.35;100208.81;5079397;28;20107;-70
2023/06/30 04:33:28;;;;;;;10.25;4.20;;;;;;;18.14;73.50;100204.47;5061592;28;20031;-70
2023/06/30 04:35:54;;;;;;;12.67;3.90;;;;;;;18.16;73.47;100212.41;5079463;28;20528;-70
2023/06/30 04:38:20;;;;;;;14.63;4.43;;;;;;;18.16;73.41;100209.75;5079714;28;20039;-70
2023/06/30 04:40:46;;;;;;;13.25;4.00;;;;;;;18.17;73.39;100211.47;5079734;28;20023;-70
2023/06/30 04:43:12;;;;;;;10.55;3.63;;;;;;;18.16;73.39;100218.63;5079410;28;20033;-70
2023/06/30 04:45:41;;;;;;;14.77;3.90;;;;;;;18.15;73.29;100218.66;5061591;28;20031;-70
2023/06/30 04:48:10;;;;;;;13.07;3.58;;;;;;;18.12;73.40;100217.00;5079139;28;20045;-70
2023/06/30 04:50:36;;;;;;;13.05;3.65;;;;;;;18.11;73.46;100219.69;5079466;28;20039;-70
2023/06/30 04:53:02;;;;;;;13.40;3.55;;;;;;;18.08;73.58;100224.22;5079406;28;20024;-70
2023/06/30 04:55:27;;;;;;;9.80;3.00;;;;;;;18.10;73.42;100221.50;5070249;28;20039;-70
2023/06/30 04:57:55;;;;;;;10.90;3.70;;;;;;;18.11;73.37;100220.59;5079125;28;20484;-70
2023/06/30 05:00:21;;;;;;;14.90;3.42;;;;;;;18.13;73.50;100223.19;5079161;28;20107;-70
2023/06/30 05:02:46;;;;;;;10.60;3.73;;;;;;;18.14;73.29;100225.81;5078736;28;20056;-69
2023/06/30 05:05:12;;;;;;;15.17;3.43;;;;;;;18.17;73.12;100222.13;5079028;28;20033;-70
2023/06/30 05:07:37;;;;;;;9.98;3.28;;;;;;;18.16;73.22;100231.94;5079210;28;20435;-70
2023/06/30 05:10:03;;;;;;;12.90;3.80;;;;;;;18.20;73.17;100224.69;5090294;28;20024;-70
2023/06/30 05:12:28;;;;;;;16.40;3.70;;;;;;;18.22;73.19;100222.88;5084097;28;20107;-70
2023/06/30 05:14:54;;;;;;;16.83;3.93;;;;;;;18.25;73.23;100224.53;5078736;28;20078;-70
2023/06/30 05:17:19;;;;;;;11.90;3.80;;;;;;;18.34;73.02;100217.06;5078494;28;20032;-70
2023/06/30 05:19:44;;;;;;;15.37;3.70;;;;;;;18.50;72.71;100219.16;5060780;28;20469;-70
2023/06/30 05:22:10;;;;;;;14.13;3.13;;;;;;;18.60;72.50;100214.34;5060764;28;20030;-70
2023/06/30 05:24:35;;;;;;;13.27;3.53;;;;;;;18.69;72.25;100221.09;5078713;28;20032;-70
2023/06/30 05:27:01;;;;;;;15.40;3.83;;;;;;;18.77;71.83;100221.69;5077892;28;20112;-70
2023/06/30 05:29:30;;;;;;;13.32;3.67;;;;;;;18.79;72.04;100222.50;5078647;28;20025;-70
2023/06/30 05:31:55;;;;;;;15.07;3.20;;;;;;;18.68;72.57;100225.59;5060376;28;20033;-70
2023/06/30 05:34:21;;;;;;;21.10;3.53;;;;;;;18.62;72.74;100220.50;5078412;28;20083;-70
2023/06/30 05:36:46;;;;;;;11.90;3.40;;;;;;;18.60;72.54;100217.88;5078574;28;20036;-70
2023/06/30 05:39:12;;;;;;;12.90;3.20;;;;;;;18.58;73.02;100222.41;5078460;28;20056;-70
2023/06/30 05:41:38;;;;;;;11.95;2.95;;;;;;;18.57;72.88;100228.66;5078375;28;20508;-70
2023/06/30 05:44:03;;;;;;;14.33;2.93;;;;;;;18.57;72.86;100223.31;5078322;28;20029;-70
2023/06/30 05:46:29;;;;;;;12.25;2.72;;;;;;;18.65;72.95;100223.03;5078232;28;20123;-70
2023/06/30 05:48:54;;;;;;;12.70;3.07;;;;;;;18.84;72.54;100228.50;5077722;28;20059;-70
2023/06/30 05:51:20;;;;;;;10.77;3.40;;;;;;;18.99;71.95;100219.06;5077916;28;20484;-70
2023/06/30 05:53:46;;;;;;;11.60;2.70;;;;;;;19.14;71.57;100216.72;5077604;28;20290;-70
2023/06/30 05:56:11;;;;;;;14.60;3.00;;;;;;;19.25;71.63;100226.97;5078034;28;20029;-70
2023/06/30 05:58:39;;;;;;;11.07;2.93;;;;;;;19.39;71.46;100226.41;5075089;28;20302;-70
2023/06/30 06:01:04;;;;;;;11.15;2.67;;;;;;;19.47;70.95;100216.25;5076918;28;20046;-71
2023/06/30 06:03:30;;;;;;;12.57;2.60;;;;;;;19.61;70.12;100218.34;5062167;28;20035;-70
2023/06/30 06:05:58;;;;;;;11.27;2.53;;;;;;;19.57;70.36;100219.41;5080786;28;20495;-70
2023/06/30 06:08:24;;;;;;;15.03;2.70;;;;;;;19.56;70.05;100213.22;5079681;28;20755;-71
2023/06/30 06:10:49;;;;;;;11.63;2.78;;;;;;;19.63;69.73;100230.69;5092614;28;20121;-70
2023/06/30 06:13:35;;;;;;;11.37;2.50;;;;;;;19.68;69.86;100222.50;5087095;28;20029;-71
2023/06/30 06:16:01;;;;;;;12.07;2.33;;;;;;;19.73;69.65;100230.28;5074644;28;20024;-71
2023/06/30 06:18:27;;;;;;;12.40;2.80;;;;;;;19.82;69.64;100232.59;5077294;28;20054;-71
2023/06/30 06:20:53;;;;;;;9.77;2.30;;;;;;;19.93;69.61;100233.00;5059488;28;20048;-71
2023/06/30 06:23:18;;;;;;;16.92;2.80;;;;;;;20.05;69.33;100242.28;5076801;28;20043;-71
2023/06/30 06:25:43;;;;;;;13.80;2.80;;;;;;;20.19;68.68;100243.50;5059483;28;20111;-72
2023/06/30 06:28:09;;;;;;;12.30;2.50;;;;;;;20.29;69.03;100244.81;5059736;28;20032;-72
2023/06/30 06:30:34;;;;;;;10.93;2.30;;;;;;;20.35;68.40;100243.69;5054816;28;20036;-73
2023/06/30 06:33:00;;;;;;;10.93;2.90;;;;;;;20.43;68.10;100243.34;5077266;28;20032;-71
2023/06/30 06:35:25;;;;;;;9.45;2.58;;;;;;;20.53;68.51;100247.31;5077099;28;20028;-71
2023/06/30 06:37:50;;;;;;;11.50;2.10;;;;;;;20.68;67.95;100255.56;5073752;28;20040;-71
2023/06/30 06:40:16;;;;;;;9.60;2.57;;;;;;;20.88;67.68;100254.66;5073955;28;20107;-69
2023/06/30 06:42:41;;;;;;;13.73;2.45;;;;;;;20.94;67.84;100263.28;5057952;28;20122;-71
2023/06/30 06:45:07;;;;;;;10.23;2.30;;;;;;;20.82;67.24;100258.50;5076810;28;20060;-71
2023/06/30 06:48:10;;;;;;;12.57;2.40;;;;;;;20.69;67.74;100262.66;5076854;28;20031;-71
2023/06/30 06:50:35;;;;;;;11.43;2.45;;;;;;;20.63;67.64;100258.47;5076887;28;20043;-71
2023/06/30 06:53:01;;;;;;;9.77;2.20;;;;;;;20.55;67.91;100266.81;5077038;28;20032;-71
2023/06/30 06:55:26;;;;;;;13.30;2.33;;;;;;;20.49;67.99;100265.28;5076946;28;20029;-71
2023/06/30 06:57:53;;;;;;;10.23;2.73;;;;;;;20.58;68.04;100261.34;5076841;28;20054;-71
2023/06/30 07:00:19;;;;;;;11.20;2.67;;;;;;;20.73;67.59;100261.56;5076771;28;20267;-71
2023/06/30 07:02:44;;;;;;;12.02;2.50;;;;;;;20.85;66.84;100263.69;5076887;28;20035;-71
2023/06/30 07:05:11;;;;;;;13.87;2.50;;;;;;;20.97;66.80;100272.09;5075959;28;20107;-71
2023/06/30 07:07:36;;;;;;;11.88;2.22;;;;;;;21.02;65.85;100270.94;5059057;28;20491;-71
2023/06/30 07:10:02;;;;;;;14.87;2.67;;;;;;;21.05;65.22;100285.97;5088331;28;20028;-71
2023/06/30 07:12:27;;;;;;;12.32;2.50;;;;;;;21.16;64.89;100278.31;5082471;28;20468;-71
2023/06/30 07:14:53;;;;;;;10.73;2.00;;;;;;;21.20;65.42;100281.69;5076772;28;20028;-71
2023/06/30 07:17:18;;;;;;;12.80;2.60;;;;;;;21.15;64.95;100283.72;5076500;28;20056;-71
2023/06/30 07:19:43;;;;;;;14.05;2.63;;;;;;;21.04;65.01;100290.47;5075813;28;20119;-71
2023/06/30 07:22:09;;;;;;;12.17;2.53;;;;;;;21.00;65.65;100290.69;5076767;28;20037;-71
2023/06/30 07:24:34;;;;;;;13.37;2.60;;;;;;;20.93;65.75;100296.34;5076757;28;20035;-71
2023/06/30 07:27:00;;;;;;;13.47;2.67;;;;;;;20.86;65.39;100302.94;5076710;28;20028;-71
2023/06/30 07:29:25;;;;;;;9.60;2.00;;;;;;;20.74;64.84;100311.47;5058877;28;20396;-71
2023/06/30 07:31:51;;;;;;;9.30;1.80;;;;;;;20.68;64.95;100314.44;5076433;28;20473;-71
2023/06/30 07:34:19;;;;;;;12.73;1.93;;;;;;;20.54;64.07;100321.28;5076574;28;20043;-70
2023/06/30 07:36:47;;;;;;;13.93;2.47;;;;;;;20.48;64.48;100321.56;5076510;28;20029;-71
2023/06/30 07:39:12;;;;;;;11.95;1.98;;;;;;;20.49;64.77;100321.47;5076516;28;20028;-71
2023/06/30 07:41:38;;;;;;;12.40;1.70;;;;;;;20.53;65.05;100332.91;5076533;28;20429;-71
2023/06/30 07:44:04;;;;;;;11.83;1.97;;;;;;;20.52;65.32;100331.19;5058482;28;20032;-71
2023/06/30 07:46:30;;;;;;;14.55;2.10;;;;;;;20.46;65.40;100332.31;5058389;28;20088;-71
2023/06/30 07:48:55;;;;;;;14.27;2.42;;;;;;;20.33;65.71;100337.34;5076129;28;20083;-71
2023/06/30 07:51:21;;;;;;;13.33;2.20;;;;;;;20.25;65.78;100349.28;5076345;28;20033;-71
2023/06/30 07:53:46;;;;;;;11.57;2.30;;;;;;;20.22;65.94;100358.34;5076497;28;20112;-71
2023/06/30 07:56:12;;;;;;;13.05;2.33;;;;;;;20.20;65.92;100352.19;5076388;28;20024;-71
2023/06/30 07:58:37;;;;;;;10.77;2.00;;;;;;;20.25;66.35;100355.53;5058347;28;20186;-71
2023/06/30 08:01:03;;;;;;;11.67;2.67;;;;;;;20.27;65.96;100352.81;5058063;28;20495;-71
2023/06/30 08:03:29;;;;;;;8.90;2.25;;;;;;;20.26;66.12;100362.59;5076098;28;20107;-71
2023/06/30 08:05:55;;;;;;;10.93;2.90;;;;;;;20.17;65.82;100347.81;5076238;28;20487;-71
2023/06/30 08:08:21;;;;;;;11.75;2.58;;;;;;;20.13;65.96;100359.59;5077895;28;20035;-71
2023/06/30 08:10:46;;;;;;;11.40;2.05;;;;;;;20.07;65.54;100363.38;5091997;28;20029;-71
2023/06/30 08:13:12;;;;;;;15.77;2.40;;;;;;;20.07;65.88;100363.38;5076242;28;20035;-71
2023/06/30 08:15:37;;;;;;;12.77;2.63;;;;;;;20.19;65.52;100355.78;5075508;28;20115;-71
2023/06/30 08:18:02;;;;;;;15.00;2.40;;;;;;;20.23;65.44;100355.56;5079594;28;20481;-71
2023/06/30 08:20:28;;;;;;;15.47;2.10;;;;;;;20.28;65.26;100363.41;5080181;28;20035;-71
2023/06/30 08:22:54;;;;;;;10.17;2.30;;;;;;;20.35;65.04;100361.34;5061807;28;20036;-71
2023/06/30 08:25:22;;;;;;;12.43;2.10;;;;;;;20.40;64.22;100358.47;5079745;28;20538;-71
2023/06/30 08:27:47;;;;;;;13.73;2.42;;;;;;;20.45;64.31;100357.31;5079967;28;20104;-71
2023/06/30 08:30:13;;;;;;;14.83;2.30;;;;;;;20.39;63.52;100356.75;5079624;28;20052;-71
2023/06/30 08:32:38;;;;;;;9.30;1.70;;;;;;;20.40;63.86;100370.03;5079533;28;20036;-71
2023/06/30 08:35:04;;;;;;;7.20;1.97;;;;;;;20.35;63.37;100377.41;5079715;28;20040;-71
2023/06/30 08:37:29;;;;;;;10.02;2.05;;;;;;;20.31;63.24;100365.94;5061720;28;20038;-71
2023/06/30 08:39:55;;;;;;;9.13;1.67;;;;;;;20.23;63.01;100368.09;5079548;28;20055;-71
2023/06/30 08:42:22;;;;;;;14.00;1.80;;;;;;;20.21;62.76;100367.28;5061614;28;20056;-71
2023/06/30 08:44:52;;;;;;;9.30;1.70;;;;;;;20.25;63.32;100370.69;5061584;28;20047;-71
2023/06/30 08:47:19;;;;;;;10.73;1.70;;;;;;;20.27;62.90;100368.84;5047891;28;20040;-71
2023/06/30 08:49:47;;;;;;;8.40;1.60;;;;;;;20.29;62.92;100372.31;5079273;28;20052;-71
2023/06/30 08:52:15;;;;;;;14.10;1.90;;;;;;;20.28;62.42;100374.09;5061304;28;20025;-71
2023/06/30 08:54:41;;;;;;;16.05;2.00;;;;;;;20.30;62.79;100377.59;5079168;28;20036;-71
2023/06/30 08:57:07;;;;;;;11.10;1.85;;;;;;;20.30;62.03;100374.06;5079236;28;20024;-71
2023/06/30 08:59:32;;;;;;;8.73;1.50;;;;;;;20.39;62.78;100379.00;5079205;28;20040;-71
2023/06/30 09:01:58;;;;;;;12.90;1.60;;;;;;;20.45;62.69;100372.53;5079252;28;20481;-71
2023/06/30 09:04:25;;;;;;;9.48;2.45;;;;;;;20.49;62.07;100371.44;5061272;28;20555;-71
2023/06/30 09:06:52;;;;;;;13.70;1.97;;;;;;;20.50;61.88;100375.84;5079284;28;20028;-71
2023/06/30 09:09:27;;;;;;;13.02;1.80;;;;;;;20.49;61.52;100374.13;5086773;28;20032;-71
2023/06/30 09:11:54;;;;;;;7.28;1.55;;;;;;;20.52;61.88;100371.31;5062994;28;20126;-71
2023/06/30 09:14:24;;;;;;;9.63;1.60;;;;;;;20.61;61.66;100368.22;5078988;28;20032;-71
2023/06/30 09:16:49;;;;;;;9.13;1.20;;;;;;;20.65;61.65;100369.84;5078694;28;20029;-71
2023/06/30 09:19:15;;;;;;;11.23;1.70;;;;;;;20.69;61.55;100369.69;5078679;28;20507;-71
2023/06/30 09:21:41;;;;;;;10.05;1.70;;;;;;;20.67;61.25;100374.25;5079003;28;20029;-71
2023/06/30 09:24:06;;;;;;;9.13;1.77;;;;;;;20.70;61.20;100382.13;5078815;28;20469;-71
2023/06/30 09:26:34;;;;;;;11.27;1.40;;;;;;;20.70;61.08;100379.47;5078972;28;20047;-71
2023/06/30 09:29:00;;;;;;;9.80;1.80;;;;;;;20.66;60.92;100381.38;5077774;28;20111;-71
2023/06/30 09:31:30;;;;;;;10.60;1.35;;;;;;;20.64;61.50;100378.81;5078373;28;20108;-71
2023/06/30 09:34:12;;;;;;;10.35;1.77;;;;;;;20.64;61.30;100381.47;5078303;28;20036;-71
2023/06/30 09:36:54;;;;;;;8.15;1.60;;;;;;;20.68;61.14;100374.16;5071901;28;20078;-71
2023/06/30 09:39:21;;;;;;;8.18;1.67;;;;;;;20.68;61.07;100381.34;5078657;28;20469;-71
2023/06/30 09:41:48;;;;;;;9.63;1.90;;;;;;;20.69;60.99;100375.03;5078407;28;20104;-71
2023/06/30 09:44:17;;;;;;;8.70;1.90;;;;;;;20.71;60.81;100386.53;5078397;28;20571;-71
2023/06/30 09:46:50;;;;;;;10.15;1.63;;;;;;;20.76;60.82;100365.78;5078176;28;20032;-71
2023/06/30 09:49:33;;;;;;;10.55;2.13;;;;;;;20.81;60.43;100371.84;5077845;28;20067;-71
2023/06/30 09:52:05;;;;;;;10.93;1.88;;;;;;;20.89;60.31;100376.84;5078341;28;20039;-71
2023/06/30 09:54:31;;;;;;;6.37;1.20;;;;;;;20.98;60.73;100378.25;5078223;28;20473;-71
2023/06/30 09:57:00;;;;;;;9.73;1.60;;;;;;;21.05;60.83;100379.69;5078222;28;20020;-71
2023/06/30 09:59:26;;;;;;;10.43;2.25;;;;;;;21.17;60.77;100387.16;5077881;28;20058;-71
2023/06/30 10:01:56;;;;;;;11.70;1.60;;;;;;;21.28;60.07;100381.31;5078032;28;20110;-71
2023/06/30 10:04:22;;;;;;;9.25;2.08;;;;;;;21.40;60.31;100384.34;5077737;28;20032;-71
2023/06/30 10:06:50;;;;;;;14.43;1.90;;;;;;;21.39;58.77;100390.63;5077260;28;20074;-71
2023/06/30 10:09:16;;;;;;;14.13;1.73;;;;;;;21.34;58.78;100391.72;5085587;28;20077;-71
2023/06/30 10:11:44;;;;;;;11.68;1.50;;;;;;;21.22;59.23;100385.13;5087179;28;20032;-71
2023/06/30 10:14:11;;;;;;;8.25;1.77;;;;;;;21.14;58.98;100386.44;5077891;28;20082;-71
2023/06/30 10:16:37;;;;;;;9.27;1.67;;;;;;;21.08;58.93;100391.13;5077736;28;20036;-71
2023/06/30 10:19:05;;;;;;;9.17;1.73;;;;;;;21.06;58.96;100394.81;5077275;28;20031;-71
2023/06/30 10:21:30;;;;;;;10.05;1.40;;;;;;;21.05;58.73;100393.94;5077735;28;20024;-71
2023/06/30 10:23:57;;;;;;;8.63;1.70;;;;;;;21.06;58.72;100389.44;5077355;28;20507;-71
2023/06/30 10:26:24;;;;;;;10.30;1.45;;;;;;;21.12;58.46;100393.66;5077635;28;20031;-71
2023/06/30 10:28:50;;;;;;;9.73;1.57;;;;;;;21.17;58.65;100388.97;5077567;28;20478;-71
2023/06/30 10:31:16;;;;;;;10.77;1.50;;;;;;;21.21;58.42;100387.88;5077099;28;20384;-71
2023/06/30 10:33:41;;;;;;;10.98;1.67;;;;;;;21.23;58.54;100388.69;5077346;28;20032;-71
2023/06/30 10:36:08;;;;;;;8.53;1.43;;;;;;;21.27;58.30;100389.41;5077351;28;20082;-71
2023/06/30 10:38:35;;;;;;;10.10;1.88;;;;;;;21.34;58.73;100391.72;5077370;28;20035;-72
2023/06/30 10:41:19;;;;;;;8.23;1.40;;;;;;;21.48;57.68;100391.06;5059444;28;20029;-71
2023/06/30 10:44:03;;;;;;;9.35;1.48;;;;;;;21.68;57.44;100383.03;5077061;28;20055;-72
2023/06/30 10:46:47;;;;;;;9.77;1.53;;;;;;;21.82;56.61;100387.72;5077204;28;20447;-71
2023/06/30 10:49:30;;;;;;;9.30;1.40;;;;;;;21.88;56.49;100382.06;5042866;28;20417;-71
2023/06/30 10:52:00;;;;;;;9.55;1.50;;;;;;;21.97;56.69;100386.97;5037093;28;20040;-71
2023/06/30 10:54:27;;;;;;;8.70;1.45;;;;;;;22.12;56.50;100387.16;5037127;28;20033;-71
2023/06/30 10:57:14;;;;;;;10.68;1.38;;;;;;;22.29;55.87;100381.75;5036990;28;20048;-71
2023/06/30 11:00:02;;;;;;;13.17;1.43;;;;;;;22.54;55.57;100380.53;5036928;28;20041;-71
2023/06/30 11:02:31;;;;;;;8.93;1.52;;;;;;;22.69;55.28;100383.38;5036566;28;20398;-71
2023/06/30 11:05:18;;;;;;;11.27;1.60;;;;;;;22.79;54.07;100380.09;5036610;28;20524;-71
2023/06/30 11:07:47;;;;;;;6.40;1.35;;;;;;;22.90;54.33;100371.47;5037098;28;20053;-71
2023/06/30 11:10:12;;;;;;;9.32;1.52;;;;;;;23.02;53.83;100375.31;5044278;28;20057;-71
2023/06/30 11:13:09;;;;;;;10.03;1.70;;;;;;;23.04;53.26;100378.78;5036998;28;20085;-71
2023/06/30 11:15:44;;;;;;;7.97;1.20;;;;;;;23.04;53.25;100368.03;5036590;28;20033;-71